Bloomfield, Indiana
Current Conditions -  °F | °C
As of 9:53 PM on Sunday 21 Dec 2014 (Local Time) from KBMG Reporting Station
Clear Clear  
Wind Chill: -4°   Ceiling: Unl
Heat Index: -1°   Visibility: 8mi
Dew Point: -3°   Wind: 7mph
Humidity: 85%   Direction: 120°ESE
Pressure: 30.08"   Gusts: NA
Location:  39.03°N, 86.94°W
Report Text: KBMG 220253Z AUTO 12006KT 8SM CLR M01/M03 A3008 RMK AO2 SLP194 T10061028 58010
Loading
Personal Weather Stations






























Interactive Weather Map New forecast layout! Learn more

10-Day Weather Forecast

Advertisements
Track Severe Weather on mobile